Time;durP1;ratioP1;P1;durP2;ratioP2;P2;SDS_P1;SDS_P2;PMS_P1;PMS_P2;Temp;Humidity;BMP_temperature;BMP_pressure;BME280_temperature;BME280_humidity;BME280_pressure;Samples;Min_cycle;Max_cycle;Signal;HPM_P1;HPM_P2
2021/08/31 00:01:45;;;;;;;3.00;2.00;;;16.10;85.60;;;;;;5070933;28;20497;-80
2021/08/31 00:04:11;;;;;;;2.05;1.55;;;16.00;85.60;;;;;;5095878;28;20051;-80
2021/08/31 00:06:37;;;;;;;2.33;1.65;;;16.10;85.70;;;;;;5100446;28;20034;-80
2021/08/31 00:09:02;;;;;;;2.78;1.60;;;16.10;85.70;;;;;;5066334;28;20489;-82
2021/08/31 00:11:28;;;;;;;2.30;1.73;;;16.00;85.70;;;;;;5091018;28;20635;-82
2021/08/31 00:13:54;;;;;;;2.90;1.70;;;16.10;85.90;;;;;;5062487;28;20489;-80
2021/08/31 00:16:20;;;;;;;2.40;1.55;;;16.10;86.00;;;;;;5113720;28;20056;-80
2021/08/31 00:18:46;;;;;;;2.03;1.60;;;16.00;86.00;;;;;;5109985;28;20048;-81
2021/08/31 00:21:11;;;;;;;2.60;1.70;;;16.10;86.10;;;;;;5037702;28;20053;-79
2021/08/31 00:23:37;;;;;;;3.50;1.80;;;16.00;86.00;;;;;;5085767;28;20048;-79
2021/08/31 00:26:03;;;;;;;2.53;1.80;;;16.00;86.00;;;;;;5102958;28;20077;-78
2021/08/31 00:28:29;;;;;;;1.83;1.30;;;16.00;86.00;;;;;;5078970;28;20100;-78
2021/08/31 00:30:55;;;;;;;2.35;1.67;;;16.00;86.20;;;;;;5094567;28;20036;-78
2021/08/31 00:33:21;;;;;;;2.88;1.65;;;16.00;86.20;;;;;;5076781;28;20044;-79
2021/08/31 00:35:47;;;;;;;1.42;1.05;;;16.00;86.20;;;;;;5069592;28;20044;-78
2021/08/31 00:38:13;;;;;;;2.63;1.60;;;16.00;86.20;;;;;;5057698;28;20090;-79
2021/08/31 00:40:39;;;;;;;1.70;1.20;;;16.00;86.30;;;;;;5046282;28;20075;-78
2021/08/31 00:43:06;;;;;;;2.10;1.48;;;15.90;86.30;;;;;;5073706;28;20043;-78
2021/08/31 00:45:33;;;;;;;2.45;1.60;;;15.90;86.30;;;;;;5075972;28;20043;-78
2021/08/31 00:47:59;;;;;;;2.65;1.60;;;15.90;86.40;;;;;;5049765;28;20076;-78
2021/08/31 00:50:25;;;;;;;3.15;1.60;;;15.90;86.50;;;;;;5042034;28;20112;-79
2021/08/31 00:52:52;;;;;;;2.53;1.63;;;15.90;86.50;;;;;;5058504;28;20044;-79
2021/08/31 00:55:18;;;;;;;2.17;1.45;;;15.90;86.70;;;;;;5051898;28;20048;-78
2021/08/31 00:57:44;;;;;;;1.85;1.40;;;15.90;86.70;;;;;;5075068;28;20040;-79
2021/08/31 01:00:13;;;;;;;2.15;1.48;;;15.90;86.70;;;;;;5094140;28;20044;-81
2021/08/31 01:02:39;;;;;;;2.85;1.90;;;15.90;86.70;;;;;;5065091;28;20168;-79
2021/08/31 01:05:06;;;;;;;3.00;1.80;;;15.90;86.80;;;;;;5066162;28;20039;-81
2021/08/31 01:07:32;;;;;;;2.55;1.65;;;15.80;86.80;;;;;;5067966;28;20044;-81
2021/08/31 01:09:59;;;;;;;2.67;1.85;;;15.90;86.90;;;;;;5070129;28;20044;-81
2021/08/31 01:12:27;;;;;;;3.13;1.80;;;15.90;87.00;;;;;;5087045;28;20417;-80
2021/08/31 01:14:53;;;;;;;3.53;2.03;;;15.80;87.00;;;;;;5066693;28;20032;-81
2021/08/31 01:17:19;;;;;;;2.83;1.55;;;15.80;87.00;;;;;;5101509;28;20040;-83
2021/08/31 01:19:45;;;;;;;2.78;1.80;;;15.80;87.00;;;;;;5073249;28;20039;-81
2021/08/31 01:22:12;;;;;;;2.80;1.88;;;15.80;87.00;;;;;;5093445;28;20048;-81
2021/08/31 01:24:41;;;;;;;3.78;2.20;;;15.80;87.00;;;;;;5078690;28;20036;-81
2021/08/31 01:27:07;;;;;;;2.78;1.67;;;15.80;87.10;;;;;;5072726;28;20043;-80
2021/08/31 01:29:33;;;;;;;3.22;1.92;;;15.80;87.10;;;;;;5077658;28;20114;-80
2021/08/31 01:32:00;;;;;;;2.22;1.50;;;15.80;87.10;;;;;;5063481;28;20044;-78
2021/08/31 01:34:26;;;;;;;2.22;1.42;;;15.80;87.10;;;;;;5058025;28;20032;-79
2021/08/31 01:36:52;;;;;;;1.85;1.40;;;15.80;87.10;;;;;;5069822;28;20048;-78
2021/08/31 01:39:19;;;;;;;2.25;1.50;;;15.80;87.20;;;;;;5074244;28;20183;-78
2021/08/31 01:41:44;;;;;;;2.17;1.60;;;15.80;87.20;;;;;;5033641;28;20406;-79
2021/08/31 01:44:10;;;;;;;1.65;1.25;;;15.70;87.30;;;;;;5092728;28;20050;-78
2021/08/31 01:46:35;;;;;;;1.70;1.25;;;15.70;87.30;;;;;;5092470;28;20044;-78
2021/08/31 01:49:01;;;;;;;3.10;1.55;;;15.70;87.30;;;;;;5074380;28;20040;-78
2021/08/31 01:51:27;;;;;;;2.40;1.45;;;15.70;87.40;;;;;;5092268;28;20075;-78
2021/08/31 01:53:53;;;;;;;2.78;1.88;;;15.70;87.40;;;;;;5075018;28;20043;-80
2021/08/31 01:56:19;;;;;;;3.05;1.80;;;15.70;87.40;;;;;;5074195;28;20040;-79
2021/08/31 01:58:45;;;;;;;2.53;1.70;;;15.70;87.50;;;;;;5092177;28;20051;-79
2021/08/31 02:01:11;;;;;;;2.78;1.52;;;15.70;87.50;;;;;;5092636;28;20122;-80
2021/08/31 02:03:37;;;;;;;2.10;1.27;;;15.70;87.50;;;;;;5092349;28;20039;-79
2021/08/31 02:06:03;;;;;;;1.73;1.33;;;15.70;87.50;;;;;;5045583;28;20048;-78
2021/08/31 02:08:29;;;;;;;2.08;1.30;;;15.60;87.50;;;;;;5057630;28;20093;-79
2021/08/31 02:10:55;;;;;;;1.50;1.17;;;15.70;87.60;;;;;;5074266;28;20420;-78
2021/08/31 02:13:21;;;;;;;2.28;1.25;;;15.60;87.60;;;;;;5074369;28;20358;-79
2021/08/31 02:15:46;;;;;;;2.67;1.42;;;15.70;87.70;;;;;;5048900;28;20029;-79
2021/08/31 02:18:12;;;;;;;2.58;1.65;;;15.60;87.70;;;;;;5091850;28;20059;-79
2021/08/31 02:20:38;;;;;;;2.33;1.60;;;15.60;87.80;;;;;;5091728;28;20107;-79
2021/08/31 02:23:04;;;;;;;2.25;1.40;;;15.60;87.80;;;;;;5091748;28;20047;-78
2021/08/31 02:25:30;;;;;;;1.95;1.38;;;15.60;87.80;;;;;;5092093;28;20044;-78
2021/08/31 02:27:56;;;;;;;1.67;1.30;;;15.70;87.80;;;;;;5056895;28;20406;-79
2021/08/31 02:30:22;;;;;;;1.92;1.40;;;15.60;87.80;;;;;;5091915;28;20067;-78
2021/08/31 02:32:49;;;;;;;1.95;1.35;;;15.60;87.80;;;;;;5057391;28;20504;-79
2021/08/31 02:35:15;;;;;;;2.10;1.45;;;15.70;87.80;;;;;;5074441;28;20466;-79
2021/08/31 02:37:41;;;;;;;2.92;1.27;;;15.70;87.80;;;;;;5047725;28;20036;-78
2021/08/31 02:40:07;;;;;;;2.53;1.60;;;15.60;87.80;;;;;;5073827;28;20043;-78
2021/08/31 02:42:33;;;;;;;1.92;1.40;;;15.70;87.90;;;;;;5091663;28;20095;-78
2021/08/31 02:44:59;;;;;;;2.35;1.52;;;15.70;87.90;;;;;;5091919;28;20036;-79
2021/08/31 02:47:24;;;;;;;1.85;1.30;;;15.70;87.90;;;;;;5092235;28;20542;-79
2021/08/31 02:49:50;;;;;;;3.08;1.48;;;15.70;87.80;;;;;;5056986;28;20071;-79
2021/08/31 02:52:16;;;;;;;2.08;1.30;;;15.60;87.80;;;;;;5042969;28;20046;-78
2021/08/31 02:54:42;;;;;;;1.30;1.02;;;15.70;87.90;;;;;;5057967;28;20041;-79
2021/08/31 02:57:08;;;;;;;2.40;1.25;;;15.70;87.90;;;;;;5060521;28;20036;-78
2021/08/31 02:59:34;;;;;;;1.98;1.33;;;15.70;87.90;;;;;;5077782;28;20040;-78
2021/08/31 03:04:43;;;;;;;1.30;1.10;;;15.70;87.90;;;;;;5073566;28;20509;-78
2021/08/31 03:07:10;;;;;;;2.35;1.35;;;15.70;88.00;;;;;;5060472;28;20040;-78
2021/08/31 03:09:36;;;;;;;1.40;1.00;;;15.70;88.00;;;;;;5095101;28;20490;-78
2021/08/31 03:12:04;;;;;;;1.35;1.17;;;15.50;87.90;;;;;;5047257;28;20048;-78
2021/08/31 03:14:30;;;;;;;1.90;1.30;;;15.60;88.10;;;;;;5076627;28;20118;-78
2021/08/31 03:16:56;;;;;;;1.52;1.27;;;15.60;88.10;;;;;;5076816;28;20028;-79
2021/08/31 03:19:24;;;;;;;1.77;1.17;;;15.60;88.20;;;;;;5094638;28;20089;-78
2021/08/31 03:21:53;;;;;;;2.30;1.30;;;15.60;88.20;;;;;;5094335;28;20040;-78
2021/08/31 03:24:19;;;;;;;2.65;1.00;;;15.60;88.20;;;;;;5075711;28;20055;-78
2021/08/31 03:26:45;;;;;;;2.92;1.50;;;15.60;88.20;;;;;;5076605;28;20062;-79
2021/08/31 03:29:10;;;;;;;2.83;1.40;;;15.60;88.20;;;;;;5074795;28;20098;-78
2021/08/31 03:31:36;;;;;;;2.35;1.45;;;15.50;88.20;;;;;;5069702;28;20040;-79
2021/08/31 03:34:03;;;;;;;2.15;1.40;;;15.60;88.20;;;;;;5076577;28;20032;-78
2021/08/31 03:36:28;;;;;;;2.63;1.45;;;15.60;88.20;;;;;;5067130;28;20048;-78
2021/08/31 03:38:54;;;;;;;1.90;1.33;;;15.60;88.20;;;;;;5095067;28;20032;-78
2021/08/31 03:41:20;;;;;;;1.42;1.10;;;15.60;88.20;;;;;;5064077;28;20131;-78
2021/08/31 03:43:46;;;;;;;2.22;1.65;;;15.60;88.20;;;;;;5076051;28;20396;-78
2021/08/31 03:46:12;;;;;;;1.85;1.40;;;15.60;88.20;;;;;;5076677;28;20055;-79
2021/08/31 03:48:37;;;;;;;1.70;1.20;;;15.60;88.20;;;;;;5050994;28;20094;-78
2021/08/31 03:51:03;;;;;;;2.25;1.55;;;15.50;88.10;;;;;;5094300;28;20047;-78
2021/08/31 03:53:29;;;;;;;3.05;1.50;;;15.60;88.20;;;;;;5093997;28;20044;-78
2021/08/31 03:55:54;;;;;;;1.88;1.25;;;15.60;88.20;;;;;;5065703;28;20455;-78
2021/08/31 03:58:20;;;;;;;2.10;1.40;;;15.60;88.20;;;;;;5094174;28;20042;-79
2021/08/31 04:00:46;;;;;;;2.08;1.30;;;15.70;88.30;;;;;;5075763;28;20028;-79
2021/08/31 04:03:12;;;;;;;2.72;1.40;;;15.70;88.20;;;;;;5093438;28;20067;-78
2021/08/31 04:05:37;;;;;;;2.15;1.20;;;15.60;88.20;;;;;;5094125;28;20054;-79
2021/08/31 04:08:03;;;;;;;1.30;1.05;;;15.70;88.20;;;;;;5094283;28;20040;-79
2021/08/31 04:10:29;;;;;;;1.33;1.02;;;15.70;88.20;;;;;;5075635;28;20113;-79
2021/08/31 04:12:55;;;;;;;1.20;1.10;;;15.70;88.20;;;;;;5058806;28;20040;-79
2021/08/31 04:15:20;;;;;;;1.40;1.00;;;15.70;88.20;;;;;;5051659;28;20044;-79
2021/08/31 04:17:46;;;;;;;2.55;1.15;;;15.70;88.10;;;;;;5042453;28;20038;-78
2021/08/31 04:20:13;;;;;;;1.95;1.13;;;15.70;88.10;;;;;;5076501;28;20377;-79
2021/08/31 04:22:38;;;;;;;1.25;1.00;;;15.70;88.10;;;;;;5094084;28;20032;-79
2021/08/31 04:25:04;;;;;;;1.65;1.00;;;15.80;88.10;;;;;;5057602;28;20059;-78
2021/08/31 04:27:30;;;;;;;1.42;0.98;;;15.80;88.10;;;;;;5076306;28;20054;-78
2021/08/31 04:29:56;;;;;;;1.52;0.98;;;15.80;88.10;;;;;;5076431;28;20494;-79
2021/08/31 04:32:21;;;;;;;1.30;1.00;;;15.80;88.10;;;;;;5042279;28;20133;-78
2021/08/31 04:34:47;;;;;;;2.60;1.17;;;15.80;88.10;;;;;;5075300;28;20036;-78
2021/08/31 04:37:13;;;;;;;0.93;0.80;;;15.80;88.00;;;;;;5093193;28;20123;-79
2021/08/31 04:39:39;;;;;;;1.60;1.10;;;15.90;88.10;;;;;;5058543;28;20039;-79
2021/08/31 04:42:06;;;;;;;1.35;0.90;;;15.90;88.10;;;;;;5093294;28;20045;-78
2021/08/31 04:44:33;;;;;;;2.00;1.30;;;15.90;88.10;;;;;;5069726;28;20458;-79
2021/08/31 04:47:00;;;;;;;1.88;1.00;;;15.90;88.10;;;;;;5074990;28;20044;-79
2021/08/31 04:49:25;;;;;;;2.30;1.13;;;15.90;88.10;;;;;;5058582;28;20040;-79
2021/08/31 04:51:51;;;;;;;1.08;0.90;;;16.00;88.10;;;;;;5093299;28;20039;-78
2021/08/31 04:54:17;;;;;;;1.40;1.00;;;16.00;88.10;;;;;;5070941;28;20037;-79
2021/08/31 04:56:43;;;;;;;1.35;0.98;;;16.00;88.10;;;;;;5058283;28;20442;-79
2021/08/31 04:59:08;;;;;;;3.20;1.40;;;16.00;88.10;;;;;;5075602;28;20043;-78
2021/08/31 05:01:34;;;;;;;2.30;1.20;;;16.00;88.10;;;;;;5047997;28;20087;-79
2021/08/31 05:04:00;;;;;;;1.63;1.13;;;16.00;88.10;;;;;;5074607;28;20211;-79
2021/08/31 05:06:27;;;;;;;1.33;0.90;;;16.00;88.10;;;;;;5040816;28;20485;-79
2021/08/31 05:08:52;;;;;;;1.52;1.02;;;16.00;88.10;;;;;;5061152;28;20040;-79
2021/08/31 05:11:18;;;;;;;2.00;1.13;;;16.00;88.10;;;;;;5041569;28;20493;-79
2021/08/31 05:13:44;;;;;;;2.80;1.10;;;16.10;88.10;;;;;;5073715;28;20048;-78
2021/08/31 05:16:13;;;;;;;1.88;1.10;;;16.10;88.10;;;;;;5075113;28;20044;-78
2021/08/31 05:18:38;;;;;;;2.30;1.15;;;16.10;88.10;;;;;;5093341;28;20051;-78
2021/08/31 05:21:05;;;;;;;1.20;0.80;;;16.10;88.10;;;;;;5075186;28;20032;-78
2021/08/31 05:23:32;;;;;;;2.05;1.13;;;16.00;88.10;;;;;;5074813;28;20066;-79
2021/08/31 05:25:59;;;;;;;2.38;1.23;;;16.00;88.10;;;;;;5058247;28;20071;-79
2021/08/31 05:28:25;;;;;;;1.92;1.10;;;16.10;88.10;;;;;;5075037;28;20052;-78
2021/08/31 05:30:51;;;;;;;2.65;1.08;;;16.10;88.10;;;;;;5076490;28;20043;-79
2021/08/31 05:33:17;;;;;;;3.00;1.45;;;16.20;88.10;;;;;;5058088;28;20056;-78
2021/08/31 05:35:43;;;;;;;1.52;1.20;;;16.00;88.00;;;;;;5092794;28;20075;-79
2021/08/31 05:38:09;;;;;;;2.30;1.20;;;16.10;88.10;;;;;;5075782;28;20470;-79
2021/08/31 05:40:34;;;;;;;1.52;1.05;;;16.00;88.00;;;;;;5058464;28;20043;-79
2021/08/31 05:43:00;;;;;;;1.98;1.00;;;16.10;88.10;;;;;;5075513;28;20046;-79
2021/08/31 05:45:28;;;;;;;1.65;1.10;;;16.10;88.00;;;;;;5075284;28;20040;-78
2021/08/31 05:47:54;;;;;;;1.85;1.13;;;16.10;88.00;;;;;;5075007;28;20047;-78
2021/08/31 05:50:20;;;;;;;2.83;1.20;;;16.10;88.00;;;;;;5074784;28;20482;-78
2021/08/31 05:52:46;;;;;;;1.75;1.00;;;16.10;88.00;;;;;;5074606;28;20043;-78
2021/08/31 05:55:12;;;;;;;1.83;0.90;;;16.20;88.00;;;;;;5074847;28;20442;-78
2021/08/31 05:57:37;;;;;;;2.33;0.90;;;16.20;88.00;;;;;;5092690;28;20039;-79
2021/08/31 06:00:07;;;;;;;1.65;1.00;;;16.20;87.90;;;;;;5075283;28;20040;-78
2021/08/31 06:02:33;;;;;;;1.35;0.70;;;16.20;87.90;;;;;;5074778;28;20515;-79
2021/08/31 06:04:59;;;;;;;1.77;1.08;;;16.30;87.90;;;;;;5074078;28;20036;-78
2021/08/31 06:07:26;;;;;;;1.73;1.02;;;16.30;87.90;;;;;;5092398;28;20532;-78
2021/08/31 06:09:52;;;;;;;1.52;0.93;;;16.30;87.90;;;;;;5092262;28;20170;-79
2021/08/31 06:12:18;;;;;;;1.13;0.90;;;16.30;87.80;;;;;;5092265;28;20052;-78
2021/08/31 06:14:43;;;;;;;1.23;0.95;;;16.40;87.80;;;;;;5072508;28;20064;-79
2021/08/31 06:17:10;;;;;;;2.65;1.30;;;16.40;87.80;;;;;;5073770;28;20406;-78
2021/08/31 06:19:37;;;;;;;1.20;1.10;;;16.40;87.80;;;;;;5073862;28;20044;-79
2021/08/31 06:22:04;;;;;;;2.03;0.93;;;16.40;87.70;;;;;;5057319;28;20040;-79
2021/08/31 06:24:30;;;;;;;1.58;0.98;;;16.50;87.70;;;;;;5053499;28;20467;-79
2021/08/31 06:26:56;;;;;;;1.50;1.10;;;16.50;87.70;;;;;;5095703;28;20143;-78
2021/08/31 06:29:22;;;;;;;3.83;1.00;;;16.50;87.60;;;;;;5078102;28;20076;-79
2021/08/31 06:31:47;;;;;;;1.48;0.70;;;16.50;87.50;;;;;;5070514;28;20060;-78
2021/08/31 06:34:13;;;;;;;2.20;1.17;;;16.50;87.50;;;;;;5077883;28;20093;-78
2021/08/31 06:36:39;;;;;;;2.10;1.15;;;16.60;87.40;;;;;;5060845;28;20036;-78
2021/08/31 06:39:04;;;;;;;2.00;1.08;;;16.60;87.40;;;;;;5077509;28;20123;-80
2021/08/31 06:41:30;;;;;;;2.47;1.30;;;16.60;87.30;;;;;;5060722;28;20048;-79
2021/08/31 06:43:56;;;;;;;3.38;1.10;;;16.60;87.20;;;;;;5095551;28;20059;-78
2021/08/31 06:46:22;;;;;;;2.28;1.13;;;16.70;87.20;;;;;;5070206;28;20076;-78
2021/08/31 06:48:47;;;;;;;0.65;0.65;;;16.70;87.20;;;;;;5061128;28;20052;-78
2021/08/31 06:51:14;;;;;;;2.63;1.08;;;16.70;87.20;;;;;;5077087;28;20552;-78
2021/08/31 06:53:42;;;;;;;2.60;1.20;;;16.70;87.20;;;;;;5072114;28;20074;-77
2021/08/31 06:56:09;;;;;;;2.17;1.20;;;16.70;87.20;;;;;;5072153;28;20070;-78
2021/08/31 06:58:35;;;;;;;1.45;1.10;;;16.70;87.10;;;;;;5043281;28;20169;-78
2021/08/31 07:01:00;;;;;;;2.17;1.40;;;16.70;87.10;;;;;;5060297;28;20040;-79
2021/08/31 07:03:26;;;;;;;2.00;1.20;;;16.70;87.10;;;;;;5076827;28;20054;-79
2021/08/31 07:06:12;;;;;;;1.75;0.88;;;16.70;87.00;;;;;;5077483;28;20044;-80
2021/08/31 07:08:37;;;;;;;2.38;1.00;;;16.70;87.00;;;;;;5094930;28;20051;-80
2021/08/31 07:11:03;;;;;;;1.92;0.95;;;16.80;87.00;;;;;;5075848;28;20394;-78
2021/08/31 07:13:28;;;;;;;2.92;1.10;;;16.90;86.90;;;;;;5077618;28;20422;-79
2021/08/31 07:15:54;;;;;;;1.65;1.15;;;16.90;86.90;;;;;;5077450;28;20393;-79
2021/08/31 07:18:20;;;;;;;1.50;0.95;;;16.90;86.70;;;;;;5042541;28;20033;-78
2021/08/31 07:20:45;;;;;;;1.73;1.10;;;17.00;86.70;;;;;;5095655;28;20412;-79
2021/08/31 07:23:14;;;;;;;1.73;1.02;;;17.00;86.60;;;;;;5095375;28;20111;-79
2021/08/31 07:25:42;;;;;;;1.95;1.13;;;17.00;86.60;;;;;;5077142;28;20044;-79
2021/08/31 07:28:08;;;;;;;2.83;1.13;;;17.10;86.60;;;;;;5075582;28;20095;-79
2021/08/31 07:30:34;;;;;;;2.35;1.50;;;17.10;86.50;;;;;;5076839;28;20069;-79
2021/08/31 07:32:59;;;;;;;2.63;1.50;;;17.10;86.50;;;;;;5076225;28;20502;-78
2021/08/31 07:35:25;;;;;;;1.80;0.90;;;17.10;86.40;;;;;;5094572;28;20118;-79
2021/08/31 07:37:51;;;;;;;1.75;1.15;;;17.10;86.30;;;;;;5047642;28;20047;-80
2021/08/31 07:40:17;;;;;;;1.92;1.50;;;17.20;86.30;;;;;;5096045;28;20043;-80
2021/08/31 07:42:43;;;;;;;1.65;1.00;;;17.20;86.30;;;;;;5060937;28;20098;-79
2021/08/31 07:45:13;;;;;;;2.67;1.30;;;17.20;86.30;;;;;;5080163;28;20044;-83
2021/08/31 07:47:38;;;;;;;1.63;1.23;;;17.30;86.30;;;;;;5056841;28;20040;-84
2021/08/31 07:50:05;;;;;;;2.33;1.23;;;17.20;86.10;;;;;;5061817;28;20397;-83
2021/08/31 07:52:35;;;;;;;2.47;1.52;;;17.30;86.60;;;;;;5076587;28;20095;-85
2021/08/31 07:55:03;;;;;;;1.88;1.23;;;17.40;86.00;;;;;;5015893;28;20225;-82
2021/08/31 07:57:29;;;;;;;2.20;1.00;;;17.50;85.80;;;;;;5003719;28;20064;-82
2021/08/31 07:59:55;;;;;;;1.70;1.40;;;17.60;85.70;;;;;;5006577;28;20504;-78
2021/08/31 08:02:41;;;;;;;1.70;1.13;;;17.60;85.40;;;;;;5019604;28;20061;-85
2021/08/31 08:05:08;;;;;;;2.13;1.20;;;17.70;85.30;;;;;;5010222;28;20093;-85
2021/08/31 08:07:38;;;;;;;1.75;1.02;;;17.80;85.20;;;;;;4998742;28;20038;-85
2021/08/31 08:10:07;;;;;;;2.30;1.30;;;17.90;85.10;;;;;;4965463;28;20051;-84
2021/08/31 08:12:50;;;;;;;1.65;1.17;;;18.00;84.90;;;;;;4925545;28;20142;-83
2021/08/31 08:15:34;;;;;;;1.20;1.00;;;18.00;84.70;;;;;;4912004;28;20177;-84
2021/08/31 08:18:00;;;;;;;2.17;1.30;;;18.10;84.70;;;;;;4928545;29;20066;-83
2021/08/31 08:20:29;;;;;;;1.17;0.90;;;18.20;84.40;;;;;;4928649;29;20051;-84
2021/08/31 08:22:58;;;;;;;2.17;1.00;;;18.40;84.50;;;;;;4907430;29;20035;-84
2021/08/31 08:25:23;;;;;;;2.13;1.20;;;18.30;84.50;;;;;;4878279;29;20045;-85
2021/08/31 08:27:49;;;;;;;2.45;1.20;;;18.50;84.00;;;;;;4902291;29;20051;-83
2021/08/31 08:30:15;;;;;;;2.40;1.27;;;18.60;83.80;;;;;;4916673;29;20541;-83
2021/08/31 08:32:42;;;;;;;2.08;1.20;;;18.60;83.90;;;;;;4920571;29;20507;-85
2021/08/31 08:35:13;;;;;;;1.92;1.10;;;18.60;83.90;;;;;;4886987;29;20040;-84
2021/08/31 08:37:39;;;;;;;;;;;18.50;84.00;;;;;;4907876;29;20044;-80
2021/08/31 08:40:08;;;;;;;1.88;1.20;;;18.50;84.10;;;;;;4916767;28;19915;-82
2021/08/31 08:42:34;;;;;;;1.50;1.00;;;18.50;84.20;;;;;;4996169;28;20075;-82
2021/08/31 08:44:59;;;;;;;2.50;1.30;;;18.50;84.20;;;;;;5012763;28;20046;-80
2021/08/31 08:47:25;;;;;;;1.58;1.10;;;18.60;84.20;;;;;;4995164;28;20390;-81
2021/08/31 08:49:51;;;;;;;3.03;1.17;;;18.50;84.10;;;;;;4994590;28;20049;-81
2021/08/31 08:52:17;;;;;;;1.48;0.90;;;18.70;84.20;;;;;;4996850;28;20502;-83
2021/08/31 08:54:45;;;;;;;2.30;1.30;;;18.70;84.60;;;;;;4980014;28;20073;-85
2021/08/31 08:57:11;;;;;;;2.35;1.23;;;18.70;83.90;;;;;;5016098;28;20090;-81
2021/08/31 08:59:41;;;;;;;1.73;1.00;;;18.80;83.80;;;;;;5048537;28;20037;-81
2021/08/31 09:02:08;;;;;;;1.90;1.03;;;18.90;83.70;;;;;;5051943;28;20051;-85
2021/08/31 09:04:51;;;;;;;0.85;0.80;;;19.10;83.60;;;;;;5089929;28;20293;-81
2021/08/31 09:07:24;;;;;;;1.48;0.95;;;19.10;83.40;;;;;;5001481;28;20038;-83
2021/08/31 09:10:10;;;;;;;1.15;1.05;;;19.30;83.50;;;;;;4988591;28;20045;-83
2021/08/31 09:13:10;;;;;;;1.60;0.82;;;19.40;83.10;;;;;;4966430;28;20062;-85
2021/08/31 09:15:39;;;;;;;1.40;1.00;;;19.50;82.60;;;;;;4956784;29;20043;-81
2021/08/31 09:18:11;;;;;;;1.50;1.10;;;19.60;82.40;;;;;;4964804;29;20517;-81
2021/08/31 09:20:46;;;;;;;2.42;1.25;;;19.70;82.10;;;;;;4966380;29;20035;-80
2021/08/31 09:23:18;;;;;;;1.88;1.30;;;19.70;82.00;;;;;;4966649;29;20111;-82
2021/08/31 09:25:46;;;;;;;3.10;1.42;;;19.80;82.20;;;;;;4963889;28;20050;-82
2021/08/31 09:28:31;;;;;;;3.30;1.45;;;19.90;81.80;;;;;;4958722;29;20047;-84
2021/08/31 09:31:09;;;;;;;2.90;1.50;;;19.90;81.80;;;;;;4956419;28;20043;-83
2021/08/31 09:33:44;;;;;;;2.25;1.40;;;20.00;81.70;;;;;;4951469;29;20150;-83
2021/08/31 09:36:38;;;;;;;1.83;1.35;;;20.10;81.50;;;;;;4968134;29;20054;-85
2021/08/31 09:45:25;;;;;;;1.98;1.10;;;20.50;80.80;;;;;;4946973;29;20094;-85
2021/08/31 09:47:56;;;;;;;2.65;1.27;;;20.50;80.60;;;;;;4942393;29;20036;-87
2021/08/31 09:51:05;;;;;;;1.25;1.00;;;20.40;80.60;;;;;;4927986;29;20067;-84
2021/08/31 09:53:49;;;;;;;1.90;1.27;;;20.30;80.80;;;;;;4945034;29;20043;-83
2021/08/31 09:59:53;;;;;;;0.90;0.85;;;20.40;81.10;;;;;;4875561;29;20559;-84
2021/08/31 10:02:37;;;;;;;1.73;1.10;;;20.50;80.90;;;;;;4862690;29;20053;-84
2021/08/31 10:05:05;;;;;;;1.67;1.10;;;20.70;80.60;;;;;;4842288;29;20045;-79
2021/08/31 10:07:31;;;;;;;2.28;1.23;;;20.70;80.00;;;;;;4861304;29;20041;-78
2021/08/31 10:09:59;;;;;;;2.60;1.40;;;20.70;80.20;;;;;;4853250;29;20278;-78
2021/08/31 10:12:25;;;;;;;1.83;1.05;;;20.70;80.20;;;;;;4880055;29;20053;-78
2021/08/31 10:14:54;;;;;;;1.77;1.10;;;20.70;80.20;;;;;;4878186;29;20519;-79
2021/08/31 10:17:24;;;;;;;1.27;1.00;;;20.70;80.10;;;;;;4870075;29;20048;-78
2021/08/31 10:19:51;;;;;;;1.60;1.20;;;20.70;80.10;;;;;;4902614;29;20051;-78
2021/08/31 10:22:17;;;;;;;2.40;1.15;;;20.70;80.20;;;;;;4920272;29;20047;-77
2021/08/31 10:24:46;;;;;;;1.67;1.10;;;20.70;80.10;;;;;;4920007;29;20047;-78
2021/08/31 10:27:33;;;;;;;1.98;1.02;;;20.80;80.10;;;;;;4936348;29;20052;-83
2021/08/31 10:30:31;;;;;;;2.33;1.23;;;20.80;80.00;;;;;;5013112;28;20197;-81
2021/08/31 10:32:59;;;;;;;1.38;1.00;;;20.90;79.80;;;;;;5079072;28;20050;-82
2021/08/31 10:35:51;;;;;;;2.45;1.20;;;21.10;79.40;;;;;;5062140;28;20489;-81
2021/08/31 10:38:16;;;;;;;2.92;1.20;;;21.10;79.30;;;;;;5051634;28;20032;-82
2021/08/31 10:40:45;;;;;;;1.85;1.15;;;21.00;79.00;;;;;;5098875;28;20066;-81
2021/08/31 10:43:14;;;;;;;1.67;1.08;;;21.10;78.90;;;;;;5080645;28;20035;-82
2021/08/31 10:45:42;;;;;;;1.02;0.93;;;21.10;78.80;;;;;;5083404;28;20078;-80
2021/08/31 10:52:05;;;;;;;2.67;1.25;;;20.90;78.70;;;;;;5031629;28;20051;-86
2021/08/31 10:54:49;;;;;;;2.28;1.48;;;20.90;78.90;;;;;;5032975;28;20522;-88
2021/08/31 10:57:43;;;;;;;1.30;1.00;;;20.80;78.90;;;;;;5033351;28;20041;-85
2021/08/31 11:00:48;;;;;;;2.58;1.30;;;20.90;78.80;;;;;;5000092;28;20052;-83
2021/08/31 11:03:30;;;;;;;2.70;1.30;;;20.90;78.70;;;;;;5008235;28;20057;-84
2021/08/31 11:06:14;;;;;;;1.70;1.10;;;21.10;78.50;;;;;;5033048;28;20045;-84
2021/08/31 11:08:39;;;;;;;1.65;1.02;;;21.10;78.20;;;;;;5001249;28;20038;-82
2021/08/31 11:11:05;;;;;;;2.42;1.20;;;21.10;78.10;;;;;;5032847;28;20128;-82
2021/08/31 11:13:31;;;;;;;1.90;1.08;;;21.20;77.90;;;;;;5016549;28;20076;-79
2021/08/31 11:15:57;;;;;;;1.58;1.10;;;21.30;77.90;;;;;;5016969;28;20052;-80
2021/08/31 11:18:23;;;;;;;1.88;1.20;;;21.40;77.60;;;;;;5015714;28;20029;-80
2021/08/31 11:20:48;;;;;;;1.58;1.17;;;21.50;77.10;;;;;;4999615;28;20055;-80
2021/08/31 11:23:19;;;;;;;2.55;1.30;;;21.40;76.80;;;;;;5077936;28;20047;-81
2021/08/31 11:25:47;;;;;;;1.33;1.23;;;21.50;77.00;;;;;;5076703;28;20135;-82
2021/08/31 11:28:17;;;;;;;3.35;1.10;;;21.40;76.90;;;;;;5077499;28;20040;-82
2021/08/31 11:30:57;;;;;;;1.95;1.20;;;21.40;76.90;;;;;;5078180;28;20253;-82
2021/08/31 11:33:28;;;;;;;1.23;1.00;;;21.30;77.00;;;;;;5076389;28;20043;-84
2021/08/31 11:35:57;;;;;;;1.27;1.00;;;21.20;77.40;;;;;;5076835;28;20119;-83
2021/08/31 11:38:32;;;;;;;1.67;1.20;;;21.30;77.40;;;;;;5096076;28;20482;-83
2021/08/31 11:41:36;;;;;;;1.45;1.15;;;21.40;77.00;;;;;;5096313;28;20036;-81
2021/08/31 11:44:13;;;;;;;1.98;1.10;;;21.60;76.50;;;;;;5095684;28;20040;-82
2021/08/31 11:46:42;;;;;;;1.23;1.00;;;21.60;76.10;;;;;;5097368;28;20052;-82
2021/08/31 11:49:17;;;;;;;1.83;1.08;;;21.70;75.70;;;;;;5096666;28;20166;-82
2021/08/31 11:52:19;;;;;;;0.93;0.88;;;21.80;75.50;;;;;;5079332;28;20044;-82
2021/08/31 11:54:50;;;;;;;1.83;1.10;;;21.90;75.20;;;;;;5049398;28;20547;-82
2021/08/31 11:57:19;;;;;;;1.25;0.80;;;22.00;75.00;;;;;;5094549;28;20486;-81
2021/08/31 11:59:51;;;;;;;1.55;0.90;;;22.20;74.80;;;;;;5095598;28;20054;-85
2021/08/31 12:02:26;;;;;;;2.05;0.93;;;22.20;74.20;;;;;;5096317;28;20048;-80
2021/08/31 12:05:06;;;;;;;3.28;1.25;;;22.30;74.10;;;;;;5097955;28;20048;-79
2021/08/31 12:07:47;;;;;;;1.02;0.93;;;22.30;74.10;;;;;;5076448;28;20109;-79
2021/08/31 12:10:14;;;;;;;;;;;22.20;74.10;;;;;;5095090;28;20109;-80
2021/08/31 12:12:44;;;;;;;1.45;1.02;;;22.20;74.40;;;;;;5078068;28;19958;-80
2021/08/31 12:15:11;;;;;;;0.85;0.77;;;22.20;74.50;;;;;;5097950;28;20036;-80
2021/08/31 12:17:42;;;;;;;0.75;0.75;;;22.30;74.40;;;;;;5080577;28;20040;-83
2021/08/31 12:20:11;;;;;;;2.30;1.25;;;22.50;74.20;;;;;;5042907;28;20040;-81
2021/08/31 12:22:40;;;;;;;0.90;0.80;;;22.60;73.40;;;;;;5077285;28;20047;-81
2021/08/31 12:25:07;;;;;;;1.38;1.02;;;22.60;73.40;;;;;;5076916;28;20506;-80
2021/08/31 12:27:40;;;;;;;1.42;1.10;;;22.60;73.40;;;;;;5043778;28;20073;-80
2021/08/31 12:30:07;;;;;;;1.95;1.10;;;22.60;73.10;;;;;;5094342;28;20131;-81
2021/08/31 12:32:33;;;;;;;0.93;0.77;;;22.70;73.10;;;;;;5077666;28;20040;-79
2021/08/31 12:35:30;;;;;;;1.25;1.05;;;22.80;73.10;;;;;;5043460;28;20047;-82
2021/08/31 12:38:17;;;;;;;3.92;1.40;;;22.50;72.90;;;;;;5078490;28;20051;-80
2021/08/31 12:41:10;;;;;;;1.17;1.08;;;22.40;73.30;;;;;;5076339;28;20040;-82
2021/08/31 12:43:52;;;;;;;1.65;1.10;;;22.20;73.80;;;;;;5094140;28;20063;-82
2021/08/31 12:46:24;;;;;;;1.48;0.90;;;21.90;74.50;;;;;;5071816;28;20482;-84
2021/08/31 12:48:59;;;;;;;1.52;1.05;;;22.00;74.40;;;;;;5040143;28;20043;-80
2021/08/31 12:51:31;;;;;;;1.58;1.00;;;22.10;74.30;;;;;;5079820;28;20078;-78
2021/08/31 12:53:57;;;;;;;1.45;1.00;;;22.20;74.00;;;;;;5078620;28;20052;-84
2021/08/31 12:56:24;;;;;;;1.77;1.15;;;22.30;73.60;;;;;;5075007;28;20083;-83
2021/08/31 12:59:03;;;;;;;2.58;1.40;;;22.20;73.30;;;;;;5058634;28;20042;-81
2021/08/31 13:01:29;;;;;;;1.30;1.10;;;22.00;73.70;;;;;;5075850;28;20043;-81
2021/08/31 13:03:56;;;;;;;2.33;1.10;;;22.00;74.30;;;;;;5058869;28;20067;-82
2021/08/31 13:06:36;;;;;;;1.30;1.00;;;22.00;74.30;;;;;;5093705;28;20067;-82
2021/08/31 13:09:10;;;;;;;1.08;0.88;;;22.00;74.10;;;;;;5073547;28;20469;-82
2021/08/31 13:11:43;;;;;;;2.22;1.33;;;22.20;74.00;;;;;;5057455;28;20037;-84
2021/08/31 13:14:17;;;;;;;1.60;1.00;;;22.30;73.60;;;;;;5052915;28;20535;-82